createdAt,value
2018-12-02T00:00:16.453Z,0.00
2018-12-02T00:01:16.427Z,0.00
2018-12-02T00:02:16.407Z,0.00
2018-12-02T00:03:16.390Z,0.00
2018-12-02T00:04:16.366Z,0.00
2018-12-02T00:05:16.346Z,0.00
2018-12-02T00:06:16.325Z,0.00
2018-12-02T00:07:16.313Z,0.00
2018-12-02T00:08:16.286Z,0.00
2018-12-02T00:09:16.269Z,0.00
2018-12-02T00:10:16.251Z,0.00
2018-12-02T00:11:16.231Z,0.00
2018-12-02T00:12:16.209Z,0.00
2018-12-02T00:13:16.191Z,0.00
2018-12-02T00:14:16.175Z,0.00
2018-12-02T00:15:16.151Z,0.00
2018-12-02T00:16:16.132Z,0.00
2018-12-02T00:17:16.134Z,0.00
2018-12-02T00:18:16.099Z,0.00
2018-12-02T00:19:16.085Z,0.00
2018-12-02T00:20:16.057Z,0.00
2018-12-02T00:21:16.037Z,0.00
2018-12-02T00:22:16.018Z,0.00
2018-12-02T00:23:15.996Z,0.00
2018-12-02T00:24:15.985Z,0.00
2018-12-02T00:25:15.960Z,0.00
2018-12-02T00:26:15.938Z,0.00
2018-12-02T00:27:15.918Z,0.00
2018-12-02T00:28:15.913Z,0.00
2018-12-02T00:29:15.879Z,0.00
2018-12-02T00:30:15.861Z,0.00
2018-12-02T00:31:15.839Z,0.00
2018-12-02T00:32:15.823Z,0.00
2018-12-02T00:33:15.804Z,0.00
2018-12-02T00:34:15.783Z,0.00
2018-12-02T00:35:15.761Z,0.00
2018-12-02T00:36:15.751Z,0.00
2018-12-02T00:37:15.728Z,0.00
2018-12-02T00:38:15.704Z,0.00
2018-12-02T00:39:15.691Z,0.00
2018-12-02T00:40:15.669Z,0.00
2018-12-02T00:41:15.660Z,0.00
2018-12-02T00:42:15.627Z,0.00
2018-12-02T00:43:15.612Z,0.00
2018-12-02T00:44:15.587Z,0.00
2018-12-02T00:45:15.571Z,0.00
2018-12-02T00:46:15.551Z,0.00
2018-12-02T00:47:15.531Z,0.00
2018-12-02T00:48:15.513Z,0.00
2018-12-02T00:49:15.506Z,0.00
2018-12-02T00:50:15.475Z,0.00
2018-12-02T00:51:15.460Z,0.00
2018-12-02T00:52:15.433Z,0.00
2018-12-02T00:53:15.413Z,0.00
2018-12-02T00:54:15.395Z,0.00
2018-12-02T00:55:15.375Z,0.00
2018-12-02T00:56:15.366Z,0.00
2018-12-02T00:57:15.336Z,0.00
2018-12-02T00:58:15.324Z,0.00
2018-12-02T00:59:15.304Z,0.00
2018-12-02T01:00:15.291Z,0.00
2018-12-02T01:01:15.264Z,0.00
2018-12-02T01:02:15.242Z,0.00
2018-12-02T01:03:15.229Z,0.00
2018-12-02T01:04:15.224Z,0.00
2018-12-02T01:05:15.184Z,0.00
2018-12-02T01:06:15.164Z,0.00
2018-12-02T01:07:15.148Z,0.00
2018-12-02T01:08:15.123Z,0.00
2018-12-02T01:09:15.107Z,0.00
2018-12-02T01:10:15.086Z,0.00
2018-12-02T01:11:15.070Z,0.00
2018-12-02T01:12:15.047Z,0.00
2018-12-02T01:13:15.030Z,0.00
2018-12-02T01:14:15.010Z,0.00
2018-12-02T01:15:14.991Z,0.00
2018-12-02T01:16:14.980Z,0.00
2018-12-02T01:17:14.962Z,0.00
2018-12-02T01:18:14.936Z,0.00
2018-12-02T01:19:14.915Z,0.00
2018-12-02T01:20:14.897Z,0.00
2018-12-02T01:21:14.876Z,0.00
2018-12-02T01:22:14.861Z,0.00
2018-12-02T01:23:14.839Z,0.00
2018-12-02T01:24:14.820Z,0.00
2018-12-02T01:25:14.799Z,0.00
2018-12-02T01:26:14.782Z,0.00
2018-12-02T01:27:14.760Z,0.00
2018-12-02T01:28:14.741Z,0.00
2018-12-02T01:29:14.725Z,0.00
2018-12-02T01:30:14.711Z,0.00
2018-12-02T01:31:14.685Z,0.00
2018-12-02T01:32:14.665Z,0.00
2018-12-02T01:33:14.647Z,0.00
2018-12-02T01:34:14.628Z,0.00
2018-12-02T01:35:14.607Z,0.00
2018-12-02T01:36:14.592Z,0.00
2018-12-02T01:37:14.572Z,0.00
2018-12-02T01:38:14.549Z,0.00
2018-12-02T01:39:14.537Z,0.00
2018-12-02T01:40:14.516Z,0.00
2018-12-02T01:41:14.510Z,0.00
2018-12-02T01:42:14.476Z,0.00
2018-12-02T01:43:14.455Z,0.00
2018-12-02T01:44:14.439Z,0.00
2018-12-02T01:45:14.416Z,0.00
2018-12-02T01:46:14.401Z,0.00
2018-12-02T01:47:14.379Z,0.00
2018-12-02T01:48:14.363Z,0.00
2018-12-02T01:49:14.343Z,0.00
2018-12-02T01:50:14.327Z,0.00
2018-12-02T01:51:14.306Z,0.00
2018-12-02T01:52:14.286Z,0.00
2018-12-02T01:53:14.269Z,0.00
2018-12-02T01:54:14.249Z,0.00
2018-12-02T01:55:14.229Z,0.00
2018-12-02T01:56:14.215Z,0.00
2018-12-02T01:57:14.197Z,0.00
2018-12-02T01:58:14.175Z,0.00
2018-12-02T01:59:14.151Z,0.00
2018-12-02T02:00:14.132Z,0.00
2018-12-02T02:01:14.117Z,0.00
2018-12-02T02:02:14.110Z,0.00
2018-12-02T02:03:14.092Z,0.00
2018-12-02T02:04:14.060Z,0.00
2018-12-02T02:05:14.042Z,0.00
2018-12-02T02:06:14.020Z,0.00
2018-12-02T02:07:14.004Z,0.00
2018-12-02T02:08:13.983Z,0.00
2018-12-02T02:09:13.958Z,0.00
2018-12-02T02:10:13.940Z,0.00
2018-12-02T02:11:13.959Z,0.00
2018-12-02T02:12:13.909Z,0.00
2018-12-02T02:13:13.885Z,0.00
2018-12-02T02:14:13.869Z,0.00
2018-12-02T02:15:13.847Z,0.00
2018-12-02T02:16:13.828Z,0.00
2018-12-02T02:17:13.806Z,0.00
2018-12-02T02:18:13.791Z,0.00
2018-12-02T02:19:13.776Z,0.00
2018-12-02T02:20:13.750Z,0.00
2018-12-02T02:21:13.733Z,0.00
2018-12-02T02:22:13.713Z,0.00
2018-12-02T02:23:13.692Z,0.00
2018-12-02T02:24:13.676Z,0.00
2018-12-02T02:25:13.655Z,0.00
2018-12-02T02:26:13.638Z,0.00
2018-12-02T02:27:13.618Z,0.00
2018-12-02T02:28:13.600Z,0.00
2018-12-02T02:29:13.578Z,0.00
2018-12-02T02:30:13.559Z,0.00
2018-12-02T02:31:13.548Z,0.00
2018-12-02T02:32:13.532Z,0.00
2018-12-02T02:33:13.505Z,0.00
2018-12-02T02:34:13.483Z,0.00
2018-12-02T02:35:13.464Z,0.00
2018-12-02T02:36:13.446Z,0.00
2018-12-02T02:37:13.425Z,0.00
2018-12-02T02:38:13.407Z,0.00
2018-12-02T02:39:13.415Z,0.00
2018-12-02T02:40:13.367Z,0.00
2018-12-02T02:41:13.350Z,0.00
2018-12-02T02:42:13.329Z,0.00
2018-12-02T02:43:13.318Z,0.00
2018-12-02T02:44:13.304Z,0.00
2018-12-02T02:45:13.283Z,0.00
2018-12-02T02:46:13.255Z,0.00
2018-12-02T02:47:13.236Z,0.00
2018-12-02T02:48:13.271Z,0.00
2018-12-02T02:49:13.202Z,0.00
2018-12-02T02:50:13.191Z,0.00
2018-12-02T02:51:13.164Z,0.00
2018-12-02T02:52:13.148Z,0.00
2018-12-02T02:53:13.123Z,0.00
2018-12-02T02:54:13.106Z,0.00
2018-12-02T02:55:13.088Z,0.00
2018-12-02T02:56:13.067Z,0.00
2018-12-02T02:57:13.045Z,0.00
2018-12-02T02:58:13.031Z,0.00
2018-12-02T02:59:13.010Z,0.00
2018-12-02T03:00:12.991Z,0.00
2018-12-02T03:01:12.978Z,0.00
2018-12-02T03:02:12.952Z,0.00
2018-12-02T03:03:12.933Z,0.00
2018-12-02T03:04:12.914Z,0.00
2018-12-02T03:05:12.897Z,0.00
2018-12-02T03:06:12.876Z,0.00
2018-12-02T03:07:12.857Z,0.00
2018-12-02T03:08:12.837Z,0.00
2018-12-02T03:09:12.826Z,0.00
2018-12-02T03:10:12.803Z,0.00
2018-12-02T03:11:12.781Z,0.00
2018-12-02T03:12:12.767Z,0.00
2018-12-02T03:13:12.760Z,0.00
2018-12-02T03:14:12.724Z,0.00
2018-12-02T03:15:12.705Z,0.00
2018-12-02T03:16:12.697Z,0.00
2018-12-02T03:17:12.669Z,0.00
2018-12-02T03:18:12.650Z,0.00
2018-12-02T03:19:12.630Z,0.00
2018-12-02T03:20:12.614Z,0.00
2018-12-02T03:21:12.593Z,0.00
2018-12-02T03:22:12.573Z,0.00
2018-12-02T03:23:12.565Z,0.00
2018-12-02T03:24:12.536Z,0.00
2018-12-02T03:25:12.523Z,0.00
2018-12-02T03:26:12.496Z,0.00
2018-12-02T03:27:12.479Z,0.00
2018-12-02T03:28:12.459Z,0.00
2018-12-02T03:29:12.447Z,0.00
2018-12-02T03:30:12.423Z,0.00
2018-12-02T03:31:12.403Z,0.00
2018-12-02T03:32:12.387Z,0.00
2018-12-02T03:33:12.371Z,0.00
2018-12-02T03:34:12.353Z,0.00
2018-12-02T03:35:12.328Z,0.00
2018-12-02T03:36:12.311Z,0.00
2018-12-02T03:37:12.288Z,0.00
2018-12-02T03:38:12.273Z,0.00
2018-12-02T03:39:12.251Z,0.00
2018-12-02T03:40:12.233Z,0.00
2018-12-02T03:41:12.229Z,0.00
2018-12-02T03:42:12.193Z,0.00
2018-12-02T03:43:12.174Z,0.00
2018-12-02T03:44:12.160Z,0.00
2018-12-02T03:45:12.139Z,0.00
2018-12-02T03:46:12.120Z,0.00
2018-12-02T03:47:12.101Z,0.00
2018-12-02T03:48:12.086Z,0.00
2018-12-02T03:49:12.059Z,0.00
2018-12-02T03:50:17.528Z,0.00
2018-12-02T03:51:12.024Z,0.00
2018-12-02T03:52:12.007Z,0.00
2018-12-02T03:53:11.988Z,0.00
2018-12-02T03:54:11.970Z,0.00
2018-12-02T03:55:11.950Z,0.00
2018-12-02T03:56:11.933Z,0.00
2018-12-02T03:57:11.912Z,0.00
2018-12-02T03:58:11.897Z,0.00
2018-12-02T03:59:11.873Z,0.00
2018-12-02T04:00:11.855Z,0.00
2018-12-02T04:01:11.837Z,0.00
2018-12-02T04:02:11.819Z,0.00
2018-12-02T04:03:11.801Z,0.00
2018-12-02T04:04:11.780Z,0.00
2018-12-02T04:05:11.764Z,0.00
2018-12-02T04:06:11.758Z,0.00
2018-12-02T04:07:11.731Z,0.00
2018-12-02T04:08:11.713Z,0.00
2018-12-02T04:09:11.685Z,0.00
2018-12-02T04:10:11.669Z,0.00
2018-12-02T04:11:11.648Z,0.00
2018-12-02T04:12:11.631Z,0.00
2018-12-02T04:13:11.611Z,0.00
2018-12-02T04:14:11.594Z,0.00
2018-12-02T04:15:11.570Z,0.00
2018-12-02T04:16:11.550Z,0.00
2018-12-02T04:17:11.530Z,0.00
2018-12-02T04:18:11.514Z,0.00
2018-12-02T04:19:11.495Z,0.00
2018-12-02T04:20:11.473Z,0.00
2018-12-02T04:21:11.464Z,0.00
2018-12-02T04:22:11.436Z,0.00
2018-12-02T04:23:11.418Z,0.00
2018-12-02T04:24:11.396Z,0.00
2018-12-02T04:25:11.377Z,0.00
2018-12-02T04:26:11.360Z,0.00
2018-12-02T04:27:11.342Z,0.00
2018-12-02T04:28:11.323Z,0.00
2018-12-02T04:29:11.303Z,0.00
2018-12-02T04:30:11.283Z,0.00
2018-12-02T04:31:11.269Z,0.00
2018-12-02T04:32:11.245Z,0.00
2018-12-02T04:33:11.224Z,0.00
2018-12-02T04:34:11.205Z,0.00
2018-12-02T04:35:11.190Z,0.00
2018-12-02T04:36:11.166Z,0.00
2018-12-02T04:37:11.153Z,0.00
2018-12-02T04:38:11.130Z,0.00
2018-12-02T04:39:11.108Z,0.00
2018-12-02T04:40:11.089Z,0.00
2018-12-02T04:41:11.070Z,0.00
2018-12-02T04:42:11.051Z,0.00
2018-12-02T04:43:11.036Z,0.00
2018-12-02T04:44:11.010Z,0.00
2018-12-02T04:45:11.000Z,0.00
2018-12-02T04:46:10.980Z,0.00
2018-12-02T04:47:10.953Z,0.00
2018-12-02T04:48:10.937Z,0.00
2018-12-02T04:49:10.915Z,0.00
2018-12-02T04:50:10.901Z,0.00
2018-12-02T04:51:10.883Z,0.00
2018-12-02T04:52:10.867Z,0.00
2018-12-02T04:53:10.843Z,0.00
2018-12-02T04:54:10.821Z,0.00
2018-12-02T04:55:10.892Z,0.00
2018-12-02T04:56:10.781Z,0.00
2018-12-02T04:57:10.769Z,0.00
2018-12-02T04:58:10.743Z,0.00
2018-12-02T04:59:10.724Z,0.00
2018-12-02T05:00:10.706Z,0.00
2018-12-02T05:01:10.695Z,0.00
2018-12-02T05:02:10.670Z,0.00
2018-12-02T05:03:10.647Z,0.00
2018-12-02T05:04:10.626Z,0.00
2018-12-02T05:05:10.611Z,0.00
2018-12-02T05:06:10.591Z,0.00
2018-12-02T05:07:10.574Z,0.00
2018-12-02T05:08:10.552Z,0.00
2018-12-02T05:09:10.532Z,0.00
2018-12-02T05:10:10.514Z,0.00
2018-12-02T05:11:10.494Z,0.00
2018-12-02T05:12:10.476Z,0.00
2018-12-02T05:13:10.455Z,0.00
2018-12-02T05:14:10.452Z,0.00
2018-12-02T05:15:10.419Z,0.00
2018-12-02T05:16:10.398Z,0.00
2018-12-02T05:17:10.391Z,0.00
2018-12-02T05:18:10.365Z,0.00
2018-12-02T05:19:10.343Z,0.00
2018-12-02T05:20:10.321Z,0.00
2018-12-02T05:21:10.310Z,0.00
2018-12-02T05:22:10.286Z,0.00
2018-12-02T05:23:10.264Z,0.00
2018-12-02T05:24:10.246Z,0.00
2018-12-02T05:25:10.224Z,0.00
2018-12-02T05:26:10.206Z,0.00
2018-12-02T05:27:10.188Z,0.00
2018-12-02T05:28:10.167Z,0.00
2018-12-02T05:29:10.153Z,0.00
2018-12-02T05:30:10.139Z,0.00
2018-12-02T05:31:10.109Z,0.00
2018-12-02T05:32:10.098Z,0.00
2018-12-02T05:33:10.073Z,0.00
2018-12-02T05:34:10.056Z,0.00
2018-12-02T05:35:10.034Z,0.00
2018-12-02T05:36:10.017Z,0.00
2018-12-02T05:37:09.997Z,0.00
2018-12-02T05:38:09.979Z,0.00
2018-12-02T05:39:09.961Z,0.00
2018-12-02T05:40:09.937Z,0.00
2018-12-02T05:41:09.919Z,0.00
2018-12-02T05:42:09.905Z,0.00
2018-12-02T05:43:09.886Z,0.00
2018-12-02T05:44:09.861Z,0.00
2018-12-02T05:45:09.847Z,0.00
2018-12-02T05:46:09.828Z,0.00
2018-12-02T05:47:09.803Z,0.00
2018-12-02T05:48:09.785Z,0.00
2018-12-02T05:49:09.771Z,0.00
2018-12-02T05:50:09.746Z,0.00
2018-12-02T05:51:09.726Z,0.00
2018-12-02T05:52:09.708Z,0.00
2018-12-02T05:53:09.688Z,0.00
2018-12-02T05:54:09.670Z,0.00
2018-12-02T05:55:09.652Z,0.00
2018-12-02T05:56:09.630Z,0.00
2018-12-02T05:57:09.616Z,0.00
2018-12-02T05:58:09.595Z,0.00
2018-12-02T05:59:09.574Z,0.00
2018-12-02T06:00:09.556Z,0.00
2018-12-02T06:01:09.537Z,0.00
2018-12-02T06:02:09.518Z,0.00
2018-12-02T06:03:09.498Z,0.00
2018-12-02T06:04:09.479Z,0.00
2018-12-02T06:05:09.459Z,0.00
2018-12-02T06:06:09.441Z,0.00
2018-12-02T06:07:09.422Z,0.00
2018-12-02T06:08:09.402Z,0.00
2018-12-02T06:09:09.387Z,0.00
2018-12-02T06:10:09.366Z,0.00
2018-12-02T06:11:09.347Z,0.00
2018-12-02T06:12:09.328Z,0.00
2018-12-02T06:13:09.306Z,0.00
2018-12-02T06:14:09.290Z,0.00
2018-12-02T06:15:09.280Z,0.00
2018-12-02T06:16:09.251Z,0.00
2018-12-02T06:17:09.230Z,0.00
2018-12-02T06:18:09.211Z,0.00
2018-12-02T06:19:09.191Z,0.00
2018-12-02T06:20:09.171Z,0.00
2018-12-02T06:21:09.162Z,0.00
2018-12-02T06:22:09.137Z,0.00
2018-12-02T06:23:09.113Z,0.00
2018-12-02T06:24:09.095Z,0.00
2018-12-02T06:25:09.080Z,0.00
2018-12-02T06:26:09.057Z,0.00
2018-12-02T06:27:09.038Z,0.00
2018-12-02T06:28:09.017Z,0.00
2018-12-02T06:29:09.004Z,0.00
2018-12-02T06:30:08.983Z,0.00
2018-12-02T06:31:08.968Z,0.00
2018-12-02T06:32:08.943Z,0.00
2018-12-02T06:33:08.926Z,0.00
2018-12-02T06:34:08.906Z,0.00
2018-12-02T06:35:08.886Z,0.00
2018-12-02T06:36:08.867Z,0.00
2018-12-02T06:37:08.847Z,0.00
2018-12-02T06:38:08.827Z,0.00
2018-12-02T06:39:08.810Z,0.00
2018-12-02T06:40:08.789Z,0.00
2018-12-02T06:41:08.778Z,0.00
2018-12-02T06:42:08.750Z,0.00
2018-12-02T06:43:08.739Z,0.00
2018-12-02T06:44:08.712Z,0.00
2018-12-02T06:45:08.693Z,0.00
2018-12-02T06:46:08.673Z,0.00
2018-12-02T06:47:08.657Z,0.00
2018-12-02T06:48:08.636Z,0.00
2018-12-02T06:49:08.615Z,0.00
2018-12-02T06:50:08.601Z,0.00
2018-12-02T06:51:08.584Z,0.00
2018-12-02T06:52:08.557Z,4.00
2018-12-02T06:53:08.546Z,4.00
2018-12-02T06:54:08.525Z,4.00
2018-12-02T06:55:08.511Z,0.00
2018-12-02T06:56:08.492Z,0.00
2018-12-02T06:57:08.467Z,4.00
2018-12-02T06:58:08.444Z,4.00
2018-12-02T06:59:08.425Z,4.00
2018-12-02T07:00:08.405Z,4.00
2018-12-02T07:01:08.386Z,4.00
2018-12-02T07:02:08.369Z,8.00
2018-12-02T07:03:08.348Z,4.00
2018-12-02T07:04:08.339Z,4.00
2018-12-02T07:05:08.311Z,4.00
2018-12-02T07:06:08.300Z,4.00
2018-12-02T07:07:08.273Z,4.00
2018-12-02T07:08:08.256Z,8.00
2018-12-02T07:09:08.235Z,8.00
2018-12-02T07:10:08.215Z,8.00
2018-12-02T07:11:08.198Z,12.00
2018-12-02T07:12:08.179Z,8.00
2018-12-02T07:13:08.158Z,12.00
2018-12-02T07:14:08.144Z,12.00
2018-12-02T07:15:08.120Z,12.00
2018-12-02T07:16:08.106Z,16.00
2018-12-02T07:17:08.082Z,16.00
2018-12-02T07:18:08.065Z,12.00
2018-12-02T07:19:08.049Z,16.00
2018-12-02T07:20:08.025Z,12.00
2018-12-02T07:21:08.015Z,16.00
2018-12-02T07:22:07.988Z,16.00
2018-12-02T07:23:07.965Z,20.00
2018-12-02T07:24:07.949Z,20.00
2018-12-02T07:25:07.929Z,20.00
2018-12-02T07:26:07.915Z,24.00
2018-12-02T07:27:07.892Z,28.00
2018-12-02T07:28:07.877Z,28.00
2018-12-02T07:29:07.857Z,28.00
2018-12-02T07:30:07.838Z,32.00
2018-12-02T07:31:07.819Z,36.00
2018-12-02T07:32:07.797Z,44.00
2018-12-02T07:33:07.779Z,40.00
2018-12-02T07:34:07.776Z,40.00
2018-12-02T07:35:07.739Z,44.00
2018-12-02T07:36:07.720Z,48.00
2018-12-02T07:37:07.702Z,48.00
2018-12-02T07:38:07.684Z,52.00
2018-12-02T07:39:07.666Z,56.00
2018-12-02T07:40:07.652Z,64.00
2018-12-02T07:41:07.627Z,64.00
2018-12-02T07:42:07.608Z,56.00
2018-12-02T07:43:07.586Z,64.00
2018-12-02T07:44:07.572Z,72.00
2018-12-02T07:45:07.551Z,76.00
2018-12-02T07:46:07.530Z,76.00
2018-12-02T07:47:07.520Z,76.00
2018-12-02T07:48:07.497Z,76.00
2018-12-02T07:49:07.473Z,80.00
2018-12-02T07:50:07.467Z,80.00
2018-12-02T07:51:07.436Z,92.00
2018-12-02T07:52:07.417Z,84.00
2018-12-02T07:53:07.397Z,84.00
2018-12-02T07:54:07.384Z,96.00
2018-12-02T07:55:07.360Z,96.00
2018-12-02T07:56:07.351Z,96.00
2018-12-02T07:57:07.325Z,104.00
2018-12-02T07:58:07.302Z,112.00
2018-12-02T07:59:07.282Z,100.00
2018-12-02T08:00:07.262Z,104.00
2018-12-02T08:01:07.245Z,100.00
2018-12-02T08:02:07.226Z,104.00
2018-12-02T08:03:07.206Z,108.00
2018-12-02T08:04:07.193Z,112.00
2018-12-02T08:05:07.168Z,108.00
2018-12-02T08:06:07.153Z,116.00
2018-12-02T08:07:07.138Z,116.00
2018-12-02T08:08:07.117Z,108.00
2018-12-02T08:09:07.096Z,116.00
2018-12-02T08:10:07.074Z,112.00
2018-12-02T08:11:07.055Z,132.00
2018-12-02T08:12:07.037Z,132.00
2018-12-02T08:13:07.018Z,120.00
2018-12-02T08:14:07.007Z,116.00
2018-12-02T08:15:06.989Z,124.00
2018-12-02T08:16:06.961Z,124.00
2018-12-02T08:17:06.942Z,116.00
2018-12-02T08:18:06.922Z,128.00
2018-12-02T08:19:06.903Z,112.00
2018-12-02T08:20:06.892Z,108.00
2018-12-02T08:21:06.865Z,100.00
2018-12-02T08:22:06.848Z,84.00
2018-12-02T08:23:06.840Z,92.00
2018-12-02T08:24:06.809Z,92.00
2018-12-02T08:25:06.793Z,92.00
2018-12-02T08:26:06.771Z,92.00
2018-12-02T08:27:06.746Z,92.00
2018-12-02T08:28:06.728Z,96.00
2018-12-02T08:29:06.713Z,96.00
2018-12-02T08:30:06.693Z,104.00
2018-12-02T08:31:06.671Z,112.00
2018-12-02T08:32:06.653Z,104.00
2018-12-02T08:33:06.635Z,100.00
2018-12-02T08:34:06.630Z,92.00
2018-12-02T08:35:06.595Z,92.00
2018-12-02T08:36:06.580Z,108.00
2018-12-02T08:37:06.569Z,144.00
2018-12-02T08:38:06.539Z,164.00
2018-12-02T08:39:06.519Z,164.00
2018-12-02T08:40:06.501Z,144.00
2018-12-02T08:41:06.482Z,140.00
2018-12-02T08:42:06.461Z,168.00
2018-12-02T08:43:06.446Z,184.00
2018-12-02T08:44:06.425Z,200.00
2018-12-02T08:45:06.408Z,220.00
2018-12-02T08:46:06.389Z,216.00
2018-12-02T08:47:06.373Z,212.00
2018-12-02T08:48:06.355Z,196.00
2018-12-02T08:49:06.331Z,196.00
2018-12-02T08:50:06.313Z,212.00
2018-12-02T08:51:06.288Z,196.00
2018-12-02T08:52:06.271Z,196.00
2018-12-02T08:53:06.275Z,188.00
2018-12-02T08:54:06.243Z,208.00
2018-12-02T08:55:06.212Z,196.00
2018-12-02T08:56:06.195Z,212.00
2018-12-02T08:57:06.324Z,188.00
2018-12-02T08:58:06.155Z,196.00
2018-12-02T08:59:06.143Z,212.00
2018-12-02T09:00:06.119Z,224.00
2018-12-02T09:01:06.107Z,212.00
2018-12-02T09:02:06.087Z,228.00
2018-12-02T09:03:06.058Z,236.00
2018-12-02T09:04:06.044Z,236.00
2018-12-02T09:05:06.025Z,252.00
2018-12-02T09:06:06.003Z,256.00
2018-12-02T09:07:05.994Z,232.00
2018-12-02T09:08:05.966Z,240.00
2018-12-02T09:09:05.946Z,240.00
2018-12-02T09:10:05.928Z,244.00
2018-12-02T09:11:05.909Z,264.00
2018-12-02T09:12:05.901Z,280.00
2018-12-02T09:13:05.882Z,304.00
2018-12-02T09:14:05.856Z,308.00
2018-12-02T09:15:05.832Z,316.00
2018-12-02T09:16:05.813Z,324.00
2018-12-02T09:17:05.796Z,292.00
2018-12-02T09:18:05.781Z,300.00
2018-12-02T09:19:05.759Z,280.00
2018-12-02T09:20:05.748Z,256.00
2018-12-02T09:21:05.719Z,276.00
2018-12-02T09:22:05.705Z,288.00
2018-12-02T09:23:05.690Z,288.00
2018-12-02T09:24:05.664Z,320.00
2018-12-02T09:25:05.641Z,312.00
2018-12-02T09:26:05.625Z,276.00
2018-12-02T09:27:05.608Z,256.00
2018-12-02T09:28:05.588Z,248.00
2018-12-02T09:29:05.565Z,256.00
2018-12-02T09:30:05.553Z,268.00
2018-12-02T09:31:05.535Z,268.00
2018-12-02T09:32:05.514Z,260.00
2018-12-02T09:33:05.489Z,248.00
2018-12-02T09:34:05.477Z,264.00
2018-12-02T09:35:05.455Z,256.00
2018-12-02T09:36:05.442Z,256.00
2018-12-02T09:37:05.417Z,292.00
2018-12-02T09:38:05.397Z,328.00
2018-12-02T09:39:05.380Z,344.00
2018-12-02T09:40:05.360Z,384.00
2018-12-02T09:41:05.340Z,336.00
2018-12-02T09:42:05.330Z,340.00
2018-12-02T09:43:05.302Z,324.00
2018-12-02T09:44:05.293Z,296.00
2018-12-02T09:45:05.267Z,320.00
2018-12-02T09:46:05.245Z,300.00
2018-12-02T09:47:05.224Z,292.00
2018-12-02T09:48:05.207Z,300.00
2018-12-02T09:49:05.191Z,300.00
2018-12-02T09:50:05.181Z,320.00
2018-12-02T09:51:05.148Z,360.00
2018-12-02T09:52:05.135Z,388.00
2018-12-02T09:53:05.116Z,388.00
2018-12-02T09:54:05.098Z,400.00
2018-12-02T09:55:05.078Z,384.00
2018-12-02T09:56:05.056Z,348.00
2018-12-02T09:57:05.037Z,368.00
2018-12-02T09:58:05.030Z,392.00
2018-12-02T09:59:04.997Z,380.00
2018-12-02T10:00:04.981Z,416.00
2018-12-02T10:01:04.964Z,464.00
2018-12-02T10:02:04.942Z,476.00
2018-12-02T10:03:04.927Z,476.00
2018-12-02T10:04:04.910Z,484.00
2018-12-02T10:05:04.895Z,464.00
2018-12-02T10:06:04.869Z,448.00
2018-12-02T10:07:04.856Z,420.00
2018-12-02T10:08:04.833Z,444.00
2018-12-02T10:09:04.815Z,428.00
2018-12-02T10:10:04.793Z,480.00
2018-12-02T10:11:04.781Z,472.00
2018-12-02T10:12:04.758Z,472.00
2018-12-02T10:13:04.739Z,492.00
2018-12-02T10:14:04.770Z,500.00
2018-12-02T10:15:04.704Z,484.00
2018-12-02T10:16:04.691Z,484.00
2018-12-02T10:17:04.665Z,524.00
2018-12-02T10:18:04.642Z,520.00
2018-12-02T10:19:04.643Z,500.00
2018-12-02T10:20:04.606Z,528.00
2018-12-02T10:21:04.592Z,604.00
2018-12-02T10:22:04.733Z,592.00
2018-12-02T10:23:04.562Z,620.00
2018-12-02T10:24:04.534Z,668.00
2018-12-02T10:25:04.516Z,752.00
2018-12-02T10:26:04.497Z,728.00
2018-12-02T10:27:04.481Z,680.00
2018-12-02T10:28:04.480Z,684.00
2018-12-02T10:29:04.447Z,656.00
2018-12-02T10:30:04.424Z,696.00
2018-12-02T10:31:04.403Z,652.00
2018-12-02T10:32:04.392Z,584.00
2018-12-02T10:33:04.371Z,640.00
2018-12-02T10:34:04.345Z,528.00
2018-12-02T10:35:04.330Z,488.00
2018-12-02T10:36:04.315Z,480.00
2018-12-02T10:37:04.289Z,484.00
2018-12-02T10:38:04.280Z,496.00
2018-12-02T10:39:04.254Z,444.00
2018-12-02T10:40:04.236Z,428.00
2018-12-02T10:41:04.216Z,416.00
2018-12-02T10:42:04.205Z,488.00
2018-12-02T10:43:04.191Z,552.00
2018-12-02T10:44:04.167Z,536.00
2018-12-02T10:45:04.145Z,508.00
2018-12-02T10:46:04.126Z,556.00
2018-12-02T10:47:04.105Z,536.00
2018-12-02T10:48:04.091Z,456.00
2018-12-02T10:49:04.079Z,420.00
2018-12-02T10:50:04.057Z,444.00
2018-12-02T10:51:04.030Z,452.00
2018-12-02T10:52:04.017Z,468.00
2018-12-02T10:53:03.998Z,504.00
2018-12-02T10:54:03.980Z,516.00
2018-12-02T10:55:03.960Z,528.00
2018-12-02T10:56:03.941Z,532.00
2018-12-02T10:57:03.923Z,564.00
2018-12-02T10:58:03.901Z,488.00
2018-12-02T10:59:03.887Z,508.00
2018-12-02T11:00:03.879Z,564.00
2018-12-02T11:01:03.850Z,596.00
2018-12-02T11:02:03.836Z,640.00
2018-12-02T11:03:03.811Z,572.00
2018-12-02T11:04:03.799Z,508.00
2018-12-02T11:05:03.803Z,448.00
2018-12-02T11:06:03.763Z,496.00
2018-12-02T11:07:03.747Z,504.00
2018-12-02T11:08:03.727Z,556.00
2018-12-02T11:09:03.715Z,568.00
2018-12-02T11:10:03.684Z,596.00
2018-12-02T11:11:03.665Z,720.00
2018-12-02T11:12:03.648Z,760.00
2018-12-02T11:13:03.634Z,768.00
2018-12-02T11:14:03.618Z,736.00
2018-12-02T11:15:03.601Z,756.00
2018-12-02T11:16:03.593Z,736.00
2018-12-02T11:17:03.556Z,644.00
2018-12-02T11:18:03.551Z,556.00
2018-12-02T11:19:03.524Z,480.00
2018-12-02T11:20:03.513Z,488.00
2018-12-02T11:21:03.486Z,468.00
2018-12-02T11:22:03.470Z,428.00
2018-12-02T11:23:03.457Z,408.00
2018-12-02T11:24:03.434Z,400.00
2018-12-02T11:25:03.412Z,400.00
2018-12-02T11:26:03.396Z,444.00
2018-12-02T11:27:03.375Z,444.00
2018-12-02T11:28:03.358Z,452.00
2018-12-02T11:29:03.344Z,476.00
2018-12-02T11:30:03.341Z,600.00
2018-12-02T11:31:03.318Z,620.00
2018-12-02T11:32:03.304Z,636.00
2018-12-02T11:33:03.271Z,628.00
2018-12-02T11:34:03.252Z,692.00
2018-12-02T11:35:03.243Z,580.00
2018-12-02T11:36:03.216Z,560.00
2018-12-02T11:37:03.200Z,548.00
2018-12-02T11:38:03.188Z,532.00
2018-12-02T11:39:03.158Z,472.00
2018-12-02T11:40:03.150Z,516.00
2018-12-02T11:41:03.128Z,488.00
2018-12-02T11:42:03.114Z,448.00
2018-12-02T11:43:03.091Z,360.00
2018-12-02T11:44:03.079Z,324.00
2018-12-02T11:45:03.056Z,288.00
2018-12-02T11:46:03.036Z,276.00
2018-12-02T11:47:03.021Z,260.00
2018-12-02T11:48:03.005Z,276.00
2018-12-02T11:49:02.981Z,308.00
2018-12-02T11:50:02.978Z,260.00
2018-12-02T11:51:02.949Z,272.00
2018-12-02T11:52:02.929Z,248.00
2018-12-02T11:53:02.932Z,232.00
2018-12-02T11:54:02.896Z,256.00
2018-12-02T11:55:02.887Z,260.00
2018-12-02T11:56:02.861Z,236.00
2018-12-02T11:57:02.836Z,248.00
2018-12-02T11:58:02.826Z,252.00
2018-12-02T11:59:02.804Z,308.00
2018-12-02T12:00:02.788Z,336.00
2018-12-02T12:01:02.775Z,272.00
2018-12-02T12:02:07.544Z,272.00
2018-12-02T12:03:02.739Z,244.00
2018-12-02T12:04:02.715Z,248.00
2018-12-02T12:05:02.705Z,288.00
2018-12-02T12:06:02.680Z,256.00
2018-12-02T12:07:02.664Z,252.00
2018-12-02T12:08:02.648Z,236.00
2018-12-02T12:09:02.627Z,208.00
2018-12-02T12:10:02.607Z,220.00
2018-12-02T12:11:02.589Z,260.00
2018-12-02T12:12:02.580Z,268.00
2018-12-02T12:13:02.554Z,272.00
2018-12-02T12:14:02.536Z,264.00
2018-12-02T12:15:02.521Z,276.00
2018-12-02T12:16:02.502Z,248.00
2018-12-02T12:17:02.485Z,272.00
2018-12-02T12:18:02.466Z,280.00
2018-12-02T12:19:02.466Z,296.00
2018-12-02T12:20:02.430Z,332.00
2018-12-02T12:21:02.414Z,308.00
2018-12-02T12:22:02.397Z,312.00
2018-12-02T12:23:02.380Z,312.00
2018-12-02T12:24:02.379Z,308.00
2018-12-02T12:25:02.358Z,356.00
2018-12-02T12:26:02.329Z,384.00
2018-12-02T12:27:02.315Z,332.00
2018-12-02T12:28:02.292Z,272.00
2018-12-02T12:29:02.275Z,296.00
2018-12-02T12:30:02.265Z,332.00
2018-12-02T12:31:02.238Z,336.00
2018-12-02T12:32:02.217Z,348.00
2018-12-02T12:33:02.201Z,408.00
2018-12-02T12:34:02.189Z,416.00
2018-12-02T12:35:02.169Z,456.00
2018-12-02T12:36:02.156Z,460.00
2018-12-02T12:37:02.141Z,536.00
2018-12-02T12:38:02.117Z,532.00
2018-12-02T12:39:02.110Z,616.00
2018-12-02T12:40:02.083Z,728.00
2018-12-02T12:41:02.067Z,648.00
2018-12-02T12:42:02.044Z,704.00
2018-12-02T12:43:02.116Z,716.00
2018-12-02T12:44:02.012Z,696.00
2018-12-02T12:45:01.990Z,684.00
2018-12-02T12:46:01.971Z,764.00
2018-12-02T12:47:01.951Z,748.00
2018-12-02T12:48:01.935Z,656.00
2018-12-02T12:49:01.926Z,772.00
2018-12-02T12:50:01.899Z,812.00
2018-12-02T12:51:01.889Z,828.00
2018-12-02T12:52:01.864Z,704.00
2018-12-02T12:53:01.867Z,612.00
2018-12-02T12:54:01.826Z,700.00
2018-12-02T12:55:01.809Z,756.00
2018-12-02T12:56:01.797Z,676.00
2018-12-02T12:57:01.785Z,792.00